Time;durP1;ratioP1;P1;durP2;ratioP2;P2;SDS_P1;SDS_P2;PMS_P1;PMS_P2;Temp;Humidity;BMP_temperature;BMP_pressure;BME280_temperature;BME280_humidity;BME280_pressure;Samples;Min_cycle;Max_cycle;Signal;HPM_P1;HPM_P2
2022/06/23 00:00:27;;;;;;;7.32;5.28;;;;;;;;;;5114639;27;20039;-64
2022/06/23 00:02:54;;;;;;;8.77;5.78;;;;;;;;;;5115083;28;20126;-64
2022/06/23 00:05:21;;;;;;;7.25;5.35;;;;;;;;;;5115186;28;20460;-64
2022/06/23 00:07:50;;;;;;;7.13;4.95;;;;;;;;;;5114818;28;20048;-64
2022/06/23 00:10:19;;;;;;;6.40;5.55;;;;;;;;;;5114722;28;20039;-64
2022/06/23 00:12:45;;;;;;;7.22;5.00;;;;;;;;;;5114833;28;20400;-64
2022/06/23 00:15:16;;;;;;;9.35;5.80;;;;;;;;;;5115025;28;20057;-64
2022/06/23 00:17:46;;;;;;;7.80;5.45;;;;;;;;;;5114890;27;20048;-64
2022/06/23 00:20:31;;;;;;;7.85;5.30;;;;;;;;;;5114609;28;20130;-64
2022/06/23 00:23:05;;;;;;;6.95;5.50;;;;;;;;;;5114641;28;20035;-64
2022/06/23 00:25:46;;;;;;;8.30;5.60;;;;;;;;;;5114473;27;20035;-64
2022/06/23 00:28:15;;;;;;;7.93;5.68;;;;;;;;;;5114635;28;20047;-64
2022/06/23 00:30:42;;;;;;;6.95;5.53;;;;;;;;;;5112966;27;20122;-64
2022/06/23 00:33:15;;;;;;;9.95;6.20;;;;;;;;;;5114248;28;20074;-64
2022/06/23 00:35:41;;;;;;;7.82;5.07;;;;;;;;;;5114346;28;20036;-64
2022/06/23 00:38:17;;;;;;;7.28;5.30;;;;;;;;;;5114402;28;20130;-64
2022/06/23 00:40:43;;;;;;;6.90;5.50;;;;;;;;;;5114265;28;20065;-64
2022/06/23 00:43:10;;;;;;;7.30;5.63;;;;;;;;;;5114182;28;20116;-64
2022/06/23 00:45:49;;;;;;;7.95;4.97;;;;;;;;;;5114242;28;20043;-64
2022/06/23 00:48:18;;;;;;;9.35;5.45;;;;;;;;;;5113965;28;20039;-64
2022/06/23 00:50:50;;;;;;;7.45;5.55;;;;;;;;;;5113854;28;20556;-64
2022/06/23 00:53:21;;;;;;;8.38;4.82;;;;;;;;;;5114338;28;20074;-64
2022/06/23 00:55:50;;;;;;;9.18;5.25;;;;;;;;;;5114217;28;20043;-64
2022/06/23 00:58:16;;;;;;;8.75;5.45;;;;;;;;;;5113907;28;20043;-64
2022/06/23 01:00:42;;;;;;;7.90;4.90;;;;;;;;;;5112859;28;20043;-64
2022/06/23 01:03:08;;;;;;;7.72;5.40;;;;;;;;;;5114102;28;20031;-64
2022/06/23 01:05:53;;;;;;;8.85;6.13;;;;;;;;;;5112491;28;20040;-64
2022/06/23 01:08:23;;;;;;;7.97;6.07;;;;;;;;;;5113805;28;20173;-64
2022/06/23 01:10:55;;;;;;;8.68;6.13;;;;;;;;;;5113473;28;20039;-64
2022/06/23 01:13:21;;;;;;;8.68;5.60;;;;;;;;;;5113424;28;20070;-64
2022/06/23 01:15:53;;;;;;;7.38;5.50;;;;;;;;;;5113623;27;20109;-64
2022/06/23 01:18:19;;;;;;;7.70;5.53;;;;;;;;;;5113694;28;20048;-64
2022/06/23 01:20:45;;;;;;;8.77;5.78;;;;;;;;;;5113357;28;20055;-64
2022/06/23 01:23:17;;;;;;;8.40;5.88;;;;;;;;;;5113519;28;20449;-64
2022/06/23 01:25:52;;;;;;;8.52;5.93;;;;;;;;;;5113184;28;20497;-64
2022/06/23 01:28:27;;;;;;;9.13;5.93;;;;;;;;;;5113380;28;20489;-64
2022/06/23 01:31:12;;;;;;;8.10;6.30;;;;;;;;;;5113037;28;20074;-64
2022/06/23 01:33:42;;;;;;;9.90;6.25;;;;;;;;;;5113294;28;20047;-64
2022/06/23 01:36:14;;;;;;;8.50;5.67;;;;;;;;;;5113126;28;20046;-64
2022/06/23 01:38:49;;;;;;;8.05;5.88;;;;;;;;;;5112838;28;20401;-64
2022/06/23 01:41:34;;;;;;;9.23;6.43;;;;;;;;;;5113068;28;20492;-64
2022/06/23 01:44:07;;;;;;;8.82;6.15;;;;;;;;;;5112931;28;20036;-64
2022/06/23 01:46:37;;;;;;;8.80;6.20;;;;;;;;;;5113047;28;20043;-64
2022/06/23 01:49:06;;;;;;;8.48;6.47;;;;;;;;;;5112858;28;20373;-64
2022/06/23 01:51:38;;;;;;;8.02;6.40;;;;;;;;;;5113148;28;20122;-64
2022/06/23 01:54:14;;;;;;;10.27;6.57;;;;;;;;;;5112874;28;20119;-64
2022/06/23 01:56:44;;;;;;;9.05;6.95;;;;;;;;;;5111900;28;20054;-64
2022/06/23 01:59:37;;;;;;;9.18;6.43;;;;;;;;;;5111079;28;20404;-64
2022/06/23 02:02:12;;;;;;;9.88;6.68;;;;;;;;;;5112687;28;20055;-64
2022/06/23 02:04:50;;;;;;;9.60;6.40;;;;;;;;;;5112708;28;20079;-64
2022/06/23 02:07:25;;;;;;;10.73;6.65;;;;;;;;;;5112637;28;20397;-64
2022/06/23 02:09:53;;;;;;;10.07;6.57;;;;;;;;;;5112595;28;20040;-64
2022/06/23 02:12:39;;;;;;;11.00;7.60;;;;;;;;;;5111754;28;20036;-64
2022/06/23 02:15:24;;;;;;;9.45;6.75;;;;;;;;;;5100991;28;20515;-64
2022/06/23 02:18:01;;;;;;;11.40;7.28;;;;;;;;;;5112406;28;20096;-63
2022/06/23 02:20:47;;;;;;;10.65;6.97;;;;;;;;;;5112418;28;20035;-64
2022/06/23 02:23:17;;;;;;;9.90;7.10;;;;;;;;;;5108410;28;20521;-64
2022/06/23 02:25:49;;;;;;;10.98;7.25;;;;;;;;;;5112520;28;20189;-64
2022/06/23 02:28:18;;;;;;;11.68;7.07;;;;;;;;;;5112343;28;20035;-64
2022/06/23 02:30:59;;;;;;;10.85;7.43;;;;;;;;;;5112077;28;20119;-64
2022/06/23 02:33:29;;;;;;;12.45;7.63;;;;;;;;;;5112526;28;20435;-64
2022/06/23 02:35:55;;;;;;;10.80;7.53;;;;;;;;;;5112423;28;20066;-64
2022/06/23 02:38:25;;;;;;;9.60;7.32;;;;;;;;;;5112129;28;20036;-64
2022/06/23 02:40:52;;;;;;;11.48;7.40;;;;;;;;;;5111878;28;20039;-64
2022/06/23 02:43:25;;;;;;;10.90;7.88;;;;;;;;;;5112299;28;20039;-64
2022/06/23 02:46:09;;;;;;;12.45;8.18;;;;;;;;;;5112470;28;20052;-64
2022/06/23 02:48:41;;;;;;;12.02;8.32;;;;;;;;;;5112142;28;20050;-64
2022/06/23 02:51:07;;;;;;;11.85;8.27;;;;;;;;;;5112049;28;20453;-64
2022/06/23 02:53:43;;;;;;;15.20;8.48;;;;;;;;;;5112390;28;20043;-64
2022/06/23 02:56:16;;;;;;;13.13;8.68;;;;;;;;;;5112286;28;20039;-64
2022/06/23 02:58:48;;;;;;;12.43;8.23;;;;;;;;;;5111923;28;20039;-64
2022/06/23 03:01:33;;;;;;;12.63;7.45;;;;;;;;;;5112066;28;20051;-64
2022/06/23 03:04:05;;;;;;;11.73;7.78;;;;;;;;;;5112250;28;20047;-64
2022/06/23 03:06:31;;;;;;;12.80;8.52;;;;;;;;;;5112190;28;20466;-64
2022/06/23 03:09:15;;;;;;;13.55;8.82;;;;;;;;;;5111945;28;20040;-64
2022/06/23 03:11:53;;;;;;;13.82;8.55;;;;;;;;;;5112416;28;20098;-64
2022/06/23 03:14:32;;;;;;;14.30;9.00;;;;;;;;;;5111879;28;20044;-64
2022/06/23 03:17:04;;;;;;;11.43;8.30;;;;;;;;;;5112120;28;20043;-64
2022/06/23 03:19:35;;;;;;;11.95;8.60;;;;;;;;;;5111757;28;20047;-64
2022/06/23 03:22:08;;;;;;;12.73;8.75;;;;;;;;;;5112006;28;20036;-64
2022/06/23 03:24:38;;;;;;;11.45;8.40;;;;;;;;;;5114577;28;20047;-64
2022/06/23 03:27:19;;;;;;;12.07;8.70;;;;;;;;;;5115833;28;20063;-64
2022/06/23 03:29:47;;;;;;;13.65;8.57;;;;;;;;;;5115536;28;20497;-64
2022/06/23 03:32:19;;;;;;;13.48;9.20;;;;;;;;;;5115477;28;20497;-64
2022/06/23 03:34:45;;;;;;;14.50;8.93;;;;;;;;;;5115630;28;20071;-64
2022/06/23 03:37:20;;;;;;;11.68;8.80;;;;;;;;;;5115424;28;20509;-64
2022/06/23 03:42:40;;;;;;;12.93;8.50;;;;;;;;;;5115397;27;20139;-64
2022/06/23 03:45:39;;;;;;;11.07;8.43;;;;;;;;;;5115359;28;20036;-64
2022/06/23 03:48:13;;;;;;;13.35;8.45;;;;;;;;;;5102901;28;20054;-64
2022/06/23 03:50:57;;;;;;;11.95;8.52;;;;;;;;;;5115054;28;20048;-64
2022/06/23 03:53:31;;;;;;;13.95;8.95;;;;;;;;;;5115287;28;20378;-64
2022/06/23 03:56:11;;;;;;;13.10;8.63;;;;;;;;;;5115067;28;20047;-64
2022/06/23 03:58:43;;;;;;;12.60;9.00;;;;;;;;;;5115034;27;20115;-64
2022/06/23 04:01:17;;;;;;;12.05;8.85;;;;;;;;;;5115127;28;20458;-64
2022/06/23 04:03:49;;;;;;;13.18;8.60;;;;;;;;;;5115099;28;20035;-64
2022/06/23 04:06:33;;;;;;;13.05;8.90;;;;;;;;;;5114829;28;20047;-64
2022/06/23 04:09:14;;;;;;;15.00;8.85;;;;;;;;;;5114870;28;20182;-64
2022/06/23 04:11:55;;;;;;;14.40;9.18;;;;;;;;;;5114910;28;20036;-64
2022/06/23 04:14:25;;;;;;;15.30;8.85;;;;;;;;;;5129743;22;20042;-61
2022/06/23 04:16:55;;;;;;;12.18;8.85;;;;;;;;;;5114923;28;20130;-62
2022/06/23 04:19:24;;;;;;;13.77;8.68;;;;;;;;;;5113113;28;20310;-62
2022/06/23 04:21:57;;;;;;;12.85;9.05;;;;;;;;;;5114800;28;20042;-62
2022/06/23 04:24:25;;;;;;;18.10;9.50;;;;;;;;;;5114752;28;20093;-61
2022/06/23 04:26:53;;;;;;;14.77;8.63;;;;;;;;;;5114432;28;20047;-62
2022/06/23 04:29:34;;;;;;;14.07;9.63;;;;;;;;;;5114573;28;20047;-61
2022/06/23 04:32:02;;;;;;;14.20;8.98;;;;;;;;;;5114555;28;20123;-62
2022/06/23 04:34:30;;;;;;;13.32;8.93;;;;;;;;;;5113943;27;20093;-61
2022/06/23 04:36:56;;;;;;;15.75;9.80;;;;;;;;;;5113905;28;20088;-61
2022/06/23 04:39:22;;;;;;;13.38;9.50;;;;;;;;;;5114452;28;20474;-61
2022/06/23 04:41:51;;;;;;;13.10;9.30;;;;;;;;;;5114054;28;20043;-62
2022/06/23 04:44:26;;;;;;;14.30;9.23;;;;;;;;;;5112862;28;20481;-62
2022/06/23 04:46:52;;;;;;;16.75;9.27;;;;;;;;;;5114192;28;20031;-62
2022/06/23 04:49:18;;;;;;;13.20;9.05;;;;;;;;;;5113981;28;20558;-62
2022/06/23 04:51:50;;;;;;;14.40;9.48;;;;;;;;;;5113860;28;20067;-61
2022/06/23 04:54:19;;;;;;;13.93;8.93;;;;;;;;;;5113870;28;20127;-62
2022/06/23 04:57:03;;;;;;;14.38;9.00;;;;;;;;;;5114121;28;20090;-62
2022/06/23 04:59:39;;;;;;;15.80;9.30;;;;;;;;;;5113622;28;20485;-62
2022/06/23 05:02:24;;;;;;;12.93;9.02;;;;;;;;;;5113664;28;20508;-62
2022/06/23 05:04:56;;;;;;;15.13;9.20;;;;;;;;;;5114078;28;20208;-61
2022/06/23 05:07:26;;;;;;;13.48;8.70;;;;;;;;;;5113887;28;20036;-62
2022/06/23 05:09:55;;;;;;;15.18;9.43;;;;;;;;;;5113525;28;20488;-62
2022/06/23 05:12:27;;;;;;;16.35;9.90;;;;;;;;;;5113429;27;20065;-62
2022/06/23 05:15:12;;;;;;;12.75;9.02;;;;;;;;;;5113558;28;20122;-62
2022/06/23 05:17:42;;;;;;;12.68;8.95;;;;;;;;;;5113660;28;20118;-61
2022/06/23 05:20:08;;;;;;;16.00;9.63;;;;;;;;;;5113544;28;20089;-62
2022/06/23 05:22:37;;;;;;;14.15;9.85;;;;;;;;;;5113416;28;20043;-62
2022/06/23 05:25:15;;;;;;;12.63;8.60;;;;;;;;;;5113372;28;20097;-62
2022/06/23 05:27:43;;;;;;;11.68;8.98;;;;;;;;;;5113513;28;20038;-62
2022/06/23 05:30:15;;;;;;;12.98;8.88;;;;;;;;;;5113342;28;20389;-61
2022/06/23 05:32:44;;;;;;;12.88;8.60;;;;;;;;;;5113171;28;20101;-62
2022/06/23 05:35:13;;;;;;;12.05;8.88;;;;;;;;;;5113373;28;20119;-62
2022/06/23 05:37:45;;;;;;;12.05;8.80;;;;;;;;;;5113080;27;20039;-62
2022/06/23 05:40:19;;;;;;;12.48;8.57;;;;;;;;;;5113125;28;20089;-62
2022/06/23 05:42:47;;;;;;;9.85;8.18;;;;;;;;;;5113084;28;20043;-62
2022/06/23 05:45:19;;;;;;;10.88;8.55;;;;;;;;;;5113136;28;20084;-62
2022/06/23 05:47:45;;;;;;;14.07;8.48;;;;;;;;;;5112800;28;20484;-61
2022/06/23 05:50:15;;;;;;;13.05;9.00;;;;;;;;;;5112706;28;20035;-62
2022/06/23 05:52:46;;;;;;;11.38;8.60;;;;;;;;;;5112917;28;20044;-62
2022/06/23 05:55:12;;;;;;;12.45;8.70;;;;;;;;;;5112955;28;20031;-62
2022/06/23 05:57:47;;;;;;;10.25;8.07;;;;;;;;;;5112823;28;20039;-62
2022/06/23 06:00:14;;;;;;;13.20;8.70;;;;;;;;;;5112645;28;20036;-62
2022/06/23 06:02:46;;;;;;;14.00;8.65;;;;;;;;;;5112505;28;20035;-62
2022/06/23 06:05:24;;;;;;;12.48;8.40;;;;;;;;;;5112854;28;20039;-62
2022/06/23 06:07:50;;;;;;;15.57;8.68;;;;;;;;;;5111382;28;20477;-62
2022/06/23 06:10:19;;;;;;;10.82;8.70;;;;;;;;;;5112592;28;20049;-62
2022/06/23 06:12:46;;;;;;;13.40;8.55;;;;;;;;;;5112287;28;20076;-62
2022/06/23 06:15:15;;;;;;;12.23;8.93;;;;;;;;;;5112516;28;20042;-62
2022/06/23 06:17:42;;;;;;;13.27;8.15;;;;;;;;;;5112621;28;20055;-62
2022/06/23 06:20:09;;;;;;;12.20;8.13;;;;;;;;;;5112516;28;20043;-62
2022/06/23 06:22:54;;;;;;;11.15;8.55;;;;;;;;;;5111046;28;20051;-62
2022/06/23 06:25:25;;;;;;;12.73;8.18;;;;;;;;;;5112650;28;20206;-62
2022/06/23 06:27:51;;;;;;;11.13;8.00;;;;;;;;;;5112299;28;20069;-61
2022/06/23 06:30:20;;;;;;;11.75;8.10;;;;;;;;;;5112157;28;20489;-62
2022/06/23 06:32:46;;;;;;;14.00;8.07;;;;;;;;;;5111966;28;20035;-62
2022/06/23 06:35:21;;;;;;;12.63;8.15;;;;;;;;;;5111214;28;20068;-62
2022/06/23 06:37:59;;;;;;;10.77;7.55;;;;;;;;;;5112209;28;20034;-62
2022/06/23 06:40:25;;;;;;;13.20;7.97;;;;;;;;;;5112049;28;20082;-62
2022/06/23 06:42:54;;;;;;;14.43;8.15;;;;;;;;;;5112317;28;20044;-62
2022/06/23 06:45:21;;;;;;;10.13;7.65;;;;;;;;;;5112283;28;20542;-62
2022/06/23 06:47:47;;;;;;;10.18;7.70;;;;;;;;;;5112202;28;20032;-62
2022/06/23 06:50:19;;;;;;;10.77;7.10;;;;;;;;;;5111961;28;20040;-62
2022/06/23 06:52:46;;;;;;;9.75;7.32;;;;;;;;;;5111848;28;20504;-62
2022/06/23 06:55:16;;;;;;;10.50;6.80;;;;;;;;;;5112061;28;20550;-62
2022/06/23 06:57:53;;;;;;;7.40;6.50;;;;;;;;;;5112357;28;20035;-62
2022/06/23 07:00:25;;;;;;;10.48;6.75;;;;;;;;;;5116076;28;20036;-62
2022/06/23 07:02:55;;;;;;;12.70;7.35;;;;;;;;;;5115919;28;20039;-62
2022/06/23 07:05:26;;;;;;;11.32;6.95;;;;;;;;;;5115949;28;20166;-62
2022/06/23 07:07:55;;;;;;;9.23;6.80;;;;;;;;;;5116440;27;20472;-62
2022/06/23 07:10:24;;;;;;;10.98;7.10;;;;;;;;;;5115940;28;20039;-62
2022/06/23 07:12:54;;;;;;;11.43;6.95;;;;;;;;;;5115936;28;20032;-62
2022/06/23 07:15:23;;;;;;;10.40;6.32;;;;;;;;;;5116029;28;20046;-62
2022/06/23 07:17:58;;;;;;;11.07;6.40;;;;;;;;;;5115778;28;20042;-62
2022/06/23 07:20:24;;;;;;;8.25;5.72;;;;;;;;;;5115704;28;20028;-62
2022/06/23 07:22:58;;;;;;;9.88;6.32;;;;;;;;;;5115906;27;20092;-62
2022/06/23 07:25:28;;;;;;;9.15;6.03;;;;;;;;;;5115918;28;20043;-62
2022/06/23 07:28:02;;;;;;;10.93;6.27;;;;;;;;;;5115856;28;20075;-62
2022/06/23 07:30:38;;;;;;;10.10;6.15;;;;;;;;;;5115382;28;20051;-62
2022/06/23 07:33:07;;;;;;;8.38;6.03;;;;;;;;;;5115857;28;20088;-62
2022/06/23 07:35:36;;;;;;;8.80;5.43;;;;;;;;;;5115461;28;20038;-62
2022/06/23 07:38:05;;;;;;;8.00;5.32;;;;;;;;;;5115562;28;20118;-62
2022/06/23 07:40:34;;;;;;;8.93;5.60;;;;;;;;;;5115172;27;20488;-62
2022/06/23 07:43:04;;;;;;;7.65;4.82;;;;;;;;;;5115605;28;20449;-62
2022/06/23 07:45:30;;;;;;;;;;;;;;;;;;5116008;28;20035;-62
2022/06/23 07:47:56;;;;;;;10.00;4.93;;;;;;;;;;5114177;28;19938;-62
2022/06/23 07:50:23;;;;;;;8.38;5.15;;;;;;;;;;5115021;28;20051;-62
2022/06/23 07:52:49;;;;;;;8.57;4.60;;;;;;;;;;5115103;28;20518;-62
2022/06/23 07:55:17;;;;;;;6.90;4.40;;;;;;;;;;5115145;28;20047;-62
2022/06/23 07:57:43;;;;;;;9.18;4.57;;;;;;;;;;5115375;28;20042;-62
2022/06/23 08:00:09;;;;;;;5.65;4.10;;;;;;;;;;5114779;28;20040;-62
2022/06/23 08:02:35;;;;;;;9.00;4.38;;;;;;;;;;5115077;28;20035;-62
2022/06/23 08:05:08;;;;;;;11.32;4.70;;;;;;;;;;5114954;28;20038;-62
2022/06/23 08:07:34;;;;;;;6.35;4.20;;;;;;;;;;5115051;28;20028;-63
2022/06/23 08:10:04;;;;;;;5.45;4.40;;;;;;;;;;5113288;27;20101;-62
2022/06/23 08:12:53;;;;;;;5.75;4.22;;;;;;;;;;5114759;28;20039;-62
2022/06/23 08:18:15;;;;;;;9.20;4.28;;;;;;;;;;5114666;28;20047;-62
2022/06/23 08:20:43;;;;;;;7.90;4.50;;;;;;;;;;5114575;28;20045;-62
2022/06/23 08:23:09;;;;;;;8.20;3.65;;;;;;;;;;5114572;27;20576;-62
2022/06/23 08:25:35;;;;;;;6.82;3.95;;;;;;;;;;5114763;28;20406;-62
2022/06/23 08:28:02;;;;;;;5.32;3.70;;;;;;;;;;5114631;28;20075;-62
2022/06/23 08:30:28;;;;;;;7.15;3.88;;;;;;;;;;5114302;28;20043;-63
2022/06/23 08:32:56;;;;;;;6.32;4.00;;;;;;;;;;5114297;28;20032;-62
2022/06/23 08:35:42;;;;;;;7.88;4.28;;;;;;;;;;5114514;28;20040;-62
2022/06/23 08:38:10;;;;;;;7.38;4.20;;;;;;;;;;5114394;28;20048;-62
2022/06/23 08:41:00;;;;;;;7.80;4.65;;;;;;;;;;5114154;28;20063;-62
2022/06/23 08:43:29;;;;;;;7.18;4.32;;;;;;;;;;5114115;28;20140;-62
2022/06/23 08:46:00;;;;;;;5.05;3.72;;;;;;;;;;5114379;28;20118;-63
2022/06/23 08:48:32;;;;;;;9.18;4.55;;;;;;;;;;5114121;28;20529;-63
2022/06/23 08:51:03;;;;;;;5.55;4.03;;;;;;;;;;5114134;28;20057;-63
2022/06/23 08:53:38;;;;;;;6.70;4.15;;;;;;;;;;5113987;28;20045;-63
2022/06/23 08:56:13;;;;;;;5.60;3.63;;;;;;;;;;5114210;28;20044;-62
2022/06/23 08:58:57;;;;;;;5.57;3.70;;;;;;;;;;5113924;28;20043;-62
2022/06/23 09:01:23;;;;;;;6.00;4.30;;;;;;;;;;5113956;28;20071;-62
2022/06/23 09:03:54;;;;;;;3.75;3.45;;;;;;;;;;5114223;28;20067;-63
2022/06/23 09:06:20;;;;;;;6.88;3.70;;;;;;;;;;5113058;28;20035;-63
2022/06/23 09:08:58;;;;;;;8.18;3.75;;;;;;;;;;5113792;28;20568;-63
2022/06/23 09:11:44;;;;;;;6.35;3.80;;;;;;;;;;5113713;28;20519;-63
2022/06/23 09:14:28;;;;;;;5.68;3.63;;;;;;;;;;5113510;28;20519;-63
2022/06/23 09:17:06;;;;;;;8.10;4.20;;;;;;;;;;5113768;28;20046;-63
2022/06/23 09:19:50;;;;;;;5.20;3.28;;;;;;;;;;5113577;28;20131;-62
2022/06/23 09:22:16;;;;;;;6.70;3.50;;;;;;;;;;5112971;28;20042;-63
2022/06/23 09:25:02;;;;;;;5.38;3.58;;;;;;;;;;5113449;28;20039;-62
2022/06/23 09:27:40;;;;;;;6.32;3.55;;;;;;;;;;5113315;28;20047;-63
2022/06/23 09:30:09;;;;;;;5.63;3.40;;;;;;;;;;5113262;28;20120;-63
2022/06/23 09:32:48;;;;;;;6.50;3.70;;;;;;;;;;5113277;28;20042;-63
2022/06/23 09:35:33;;;;;;;5.95;3.60;;;;;;;;;;5113116;28;20042;-62
2022/06/23 09:38:14;;;;;;;5.15;3.40;;;;;;;;;;5113462;28;20078;-63
2022/06/23 09:40:59;;;;;;;5.75;3.30;;;;;;;;;;5113076;28;20050;-63
2022/06/23 09:43:28;;;;;;;4.95;3.58;;;;;;;;;;5113039;28;20438;-62
2022/06/23 09:46:05;;;;;;;5.72;3.40;;;;;;;;;;5111986;28;20507;-62
2022/06/23 09:48:53;;;;;;;7.68;3.60;;;;;;;;;;5113164;28;20048;-63
2022/06/23 09:51:22;;;;;;;5.38;3.72;;;;;;;;;;5113040;28;20042;-63
2022/06/23 09:53:54;;;;;;;6.80;3.40;;;;;;;;;;5112785;28;20042;-63
2022/06/23 09:56:49;;;;;;;4.53;3.35;;;;;;;;;;5112840;28;20505;-63
2022/06/23 09:59:21;;;;;;;3.97;2.92;;;;;;;;;;5112718;28;20044;-63
2022/06/23 10:01:52;;;;;;;4.00;2.90;;;;;;;;;;5112842;28;20073;-63
2022/06/23 10:04:22;;;;;;;6.85;3.33;;;;;;;;;;5112636;28;20528;-62
2022/06/23 10:06:54;;;;;;;5.97;3.30;;;;;;;;;;5112631;28;20048;-63
2022/06/23 10:09:23;;;;;;;4.65;3.08;;;;;;;;;;5112621;28;20039;-63
2022/06/23 10:12:01;;;;;;;3.90;3.13;;;;;;;;;;5112763;28;20047;-62
2022/06/23 10:14:33;;;;;;;5.05;3.35;;;;;;;;;;5097706;22;20041;-65
2022/06/23 10:16:59;;;;;;;4.95;3.28;;;;;;;;;;5071767;28;20033;-65
2022/06/23 10:19:34;;;;;;;7.40;3.55;;;;;;;;;;5071844;28;20040;-65
2022/06/23 10:22:00;;;;;;;6.55;3.60;;;;;;;;;;5072088;28;20406;-65
2022/06/23 10:24:38;;;;;;;3.35;3.05;;;;;;;;;;5071924;28;20044;-65
2022/06/23 10:27:43;;;;;;;5.25;3.53;;;;;;;;;;5071876;28;20119;-65
2022/06/23 10:30:12;;;;;;;4.43;3.20;;;;;;;;;;5009627;28;20050;-65
2022/06/23 10:32:56;;;;;;;4.90;3.13;;;;;;;;;;5009196;28;20037;-65
2022/06/23 10:35:28;;;;;;;3.42;2.85;;;;;;;;;;5048500;28;20490;-65
2022/06/23 10:38:01;;;;;;;9.45;3.28;;;;;;;;;;5071585;28;20043;-65
2022/06/23 10:40:45;;;;;;;5.97;2.83;;;;;;;;;;5071636;28;20036;-65
2022/06/23 10:43:25;;;;;;;8.05;3.20;;;;;;;;;;5071785;28;20044;-64
2022/06/23 10:45:57;;;;;;;6.47;3.03;;;;;;;;;;5071835;28;20036;-65
2022/06/23 10:48:26;;;;;;;3.85;2.90;;;;;;;;;;5071855;28;20068;-65
2022/06/23 10:51:11;;;;;;;6.85;3.00;;;;;;;;;;5071748;28;20116;-65
2022/06/23 10:53:56;;;;;;;8.23;3.20;;;;;;;;;;5071701;28;20040;-65
2022/06/23 10:56:22;;;;;;;4.57;2.90;;;;;;;;;;5071602;28;20048;-65
2022/06/23 10:58:48;;;;;;;5.03;2.83;;;;;;;;;;5071170;28;20041;-65
2022/06/23 11:01:49;;;;;;;4.28;2.70;;;;;;;;;;5071746;28;20155;-65
2022/06/23 11:04:15;;;;;;;5.57;3.00;;;;;;;;;;5009466;28;20045;-65
2022/06/23 11:06:50;;;;;;;6.30;2.70;;;;;;;;;;5058799;28;20490;-65
2022/06/23 11:09:41;;;;;;;5.72;2.60;;;;;;;;;;5071246;28;20052;-65
2022/06/23 11:12:27;;;;;;;3.88;2.60;;;;;;;;;;5071616;28;20079;-65
2022/06/23 11:15:12;;;;;;;3.65;2.60;;;;;;;;;;5107268;28;20043;-65
2022/06/23 11:17:46;;;;;;;5.45;2.55;;;;;;;;;;5112141;28;20040;-65
2022/06/23 11:20:31;;;;;;;3.00;2.10;;;;;;;;;;5111946;28;20036;-65
2022/06/23 11:23:00;;;;;;;4.80;2.58;;;;;;;;;;5111812;28;20042;-65
2022/06/23 11:25:52;;;;;;;4.00;2.17;;;;;;;;;;5111972;28;20035;-65
2022/06/23 11:28:24;;;;;;;4.28;2.28;;;;;;;;;;5089359;28;20048;-65
2022/06/23 11:30:50;;;;;;;4.10;2.50;;;;;;;;;;5111679;28;20027;-65
2022/06/23 11:33:36;;;;;;;5.88;2.35;;;;;;;;;;5111831;28;20039;-66
2022/06/23 11:36:08;;;;;;;2.97;2.50;;;;;;;;;;5111776;28;20038;-65
2022/06/23 11:38:41;;;;;;;3.55;2.10;;;;;;;;;;5111280;28;20493;-65
2022/06/23 11:41:07;;;;;;;3.80;2.40;;;;;;;;;;5111707;28;20424;-65
2022/06/23 11:43:39;;;;;;;4.57;2.20;;;;;;;;;;5111764;28;20035;-65
2022/06/23 11:46:12;;;;;;;3.33;2.20;;;;;;;;;;5115116;28;20040;-65
2022/06/23 11:48:57;;;;;;;4.50;2.17;;;;;;;;;;5114955;28;20036;-65
2022/06/23 11:51:31;;;;;;;3.20;2.28;;;;;;;;;;5115663;28;20051;-65
2022/06/23 11:54:03;;;;;;;4.10;2.33;;;;;;;;;;5115180;28;20031;-65
2022/06/23 11:56:29;;;;;;;4.13;2.33;;;;;;;;;;5115436;28;20039;-65
2022/06/23 11:59:09;;;;;;;2.20;2.00;;;;;;;;;;5114633;28;20036;-65
2022/06/23 12:01:36;;;;;;;3.30;1.92;;;;;;;;;;5115318;28;20101;-65
2022/06/23 12:04:11;;;;;;;4.97;2.00;;;;;;;;;;5115019;28;20032;-65
2022/06/23 12:06:37;;;;;;;3.67;2.20;;;;;;;;;;5115080;28;20043;-65
2022/06/23 12:09:21;;;;;;;2.35;2.10;;;;;;;;;;5114673;28;20043;-66
2022/06/23 12:11:48;;;;;;;3.20;2.30;;;;;;;;;;5115220;28;20047;-65
2022/06/23 12:14:15;;;;;;;7.97;2.45;;;;;;;;;;5114689;28;20044;-65
2022/06/23 12:16:45;;;;;;;6.75;2.45;;;;;;;;;;5115027;28;20085;-65
2022/06/23 12:19:14;;;;;;;5.30;2.33;;;;;;;;;;5114522;28;20043;-65
2022/06/23 12:21:59;;;;;;;2.70;2.47;;;;;;;;;;5114720;28;20443;-65
2022/06/23 12:24:43;;;;;;;2.72;2.38;;;;;;;;;;5114590;28;20035;-65
2022/06/23 12:27:21;;;;;;;3.40;2.25;;;;;;;;;;5114752;28;20047;-65
2022/06/23 12:29:51;;;;;;;6.40;2.35;;;;;;;;;;5114263;28;20066;-65
2022/06/23 12:32:25;;;;;;;5.60;2.20;;;;;;;;;;5114482;28;20043;-66
2022/06/23 12:34:57;;;;;;;5.90;2.40;;;;;;;;;;5114655;28;20051;-64
2022/06/23 12:37:26;;;;;;;4.57;2.30;;;;;;;;;;5114635;28;20074;-66
2022/06/23 12:39:55;;;;;;;3.15;2.20;;;;;;;;;;5114071;28;20040;-66
2022/06/23 12:42:27;;;;;;;3.67;2.35;;;;;;;;;;5114416;28;20027;-66
2022/06/23 12:44:59;;;;;;;3.92;2.20;;;;;;;;;;5114076;28;20058;-65
2022/06/23 12:47:35;;;;;;;3.63;2.30;;;;;;;;;;5114457;28;20044;-65
2022/06/23 12:50:20;;;;;;;2.70;2.22;;;;;;;;;;5113841;28;20039;-66
2022/06/23 12:52:49;;;;;;;4.93;2.20;;;;;;;;;;5114078;28;20381;-65
2022/06/23 12:55:44;;;;;;;3.70;2.10;;;;;;;;;;5113941;28;20070;-65
2022/06/23 12:58:10;;;;;;;2.92;2.42;;;;;;;;;;5092164;28;20066;-65
2022/06/23 13:00:39;;;;;;;3.17;2.30;;;;;;;;;;5113902;28;20031;-64
2022/06/23 13:03:15;;;;;;;3.05;2.22;;;;;;;;;;5113829;28;20035;-66
2022/06/23 13:05:47;;;;;;;5.40;2.00;;;;;;;;;;5113813;28;20035;-65
2022/06/23 13:08:25;;;;;;;3.50;2.40;;;;;;;;;;5113966;28;20039;-66
2022/06/23 13:10:55;;;;;;;4.57;2.35;;;;;;;;;;5095582;28;20126;-66
2022/06/23 13:13:31;;;;;;;5.85;2.55;;;;;;;;;;5113558;28;20121;-63
2022/06/23 13:15:57;;;;;;;2.67;2.47;;;;;;;;;;5113708;28;20043;-64
2022/06/23 13:18:29;;;;;;;3.28;2.30;;;;;;;;;;5113348;28;20519;-64
2022/06/23 13:20:59;;;;;;;5.43;2.40;;;;;;;;;;5113910;28;20039;-63
2022/06/23 13:23:34;;;;;;;4.53;2.30;;;;;;;;;;5113502;28;20050;-63
2022/06/23 13:26:04;;;;;;;2.55;2.13;;;;;;;;;;5113553;28;20043;-64
2022/06/23 13:28:32;;;;;;;2.60;2.17;;;;;;;;;;5112972;28;20047;-64
2022/06/23 13:31:10;;;;;;;2.40;2.17;;;;;;;;;;5113615;28;20397;-64
2022/06/23 13:33:36;;;;;;;4.05;2.40;;;;;;;;;;5113423;28;20404;-64
2022/06/23 13:36:13;;;;;;;3.30;2.30;;;;;;;;;;5113419;28;20035;-64
2022/06/23 13:38:43;;;;;;;9.77;2.55;;;;;;;;;;5112939;28;20043;-63
2022/06/23 13:41:11;;;;;;;8.15;2.70;;;;;;;;;;5113101;28;20122;-63
2022/06/23 13:43:41;;;;;;;3.15;2.25;;;;;;;;;;5113163;28;20088;-63
2022/06/23 13:46:15;;;;;;;3.15;2.55;;;;;;;;;;5113428;28;20050;-63
2022/06/23 13:48:41;;;;;;;3.88;2.30;;;;;;;;;;5094539;28;20074;-63
2022/06/23 13:51:10;;;;;;;2.83;2.15;;;;;;;;;;5113081;28;20078;-63
2022/06/23 13:53:42;;;;;;;2.97;2.33;;;;;;;;;;5112654;28;20473;-63
2022/06/23 13:56:08;;;;;;;5.20;2.38;;;;;;;;;;5113130;28;20185;-63
2022/06/23 13:58:44;;;;;;;2.97;1.98;;;;;;;;;;5112697;28;20122;-63
2022/06/23 14:01:19;;;;;;;4.20;2.42;;;;;;;;;;5112791;28;20111;-63
2022/06/23 14:04:00;;;;;;;4.22;2.50;;;;;;;;;;5112695;28;20428;-63
2022/06/23 14:06:26;;;;;;;3.65;2.40;;;;;;;;;;5112978;28;20096;-63
2022/06/23 14:08:52;;;;;;;3.42;2.50;;;;;;;;;;5112510;28;20039;-64
2022/06/23 14:11:24;;;;;;;4.10;2.60;;;;;;;;;;5112730;28;20031;-63
2022/06/23 14:13:58;;;;;;;3.42;2.50;;;;;;;;;;5112477;28;20031;-63
2022/06/23 14:16:36;;;;;;;4.10;2.55;;;;;;;;;;5112640;28;20396;-63
2022/06/23 14:19:02;;;;;;;5.70;2.47;;;;;;;;;;5112360;28;20039;-63
2022/06/23 14:21:43;;;;;;;5.95;2.63;;;;;;;;;;5112720;28;20035;-64
2022/06/23 14:24:11;;;;;;;6.43;2.40;;;;;;;;;;5112407;28;20405;-63
2022/06/23 14:26:43;;;;;;;3.65;2.80;;;;;;;;;;5112365;28;20487;-63
2022/06/23 14:29:13;;;;;;;4.22;2.67;;;;;;;;;;5111975;28;20050;-63
2022/06/23 14:31:46;;;;;;;4.72;2.90;;;;;;;;;;5112758;28;20039;-63
2022/06/23 14:34:21;;;;;;;3.47;2.40;;;;;;;;;;5112319;28;20039;-63
2022/06/23 14:36:51;;;;;;;3.92;2.97;;;;;;;;;;5112512;28;20044;-64
2022/06/23 14:39:22;;;;;;;5.70;2.63;;;;;;;;;;5111901;28;20039;-63
2022/06/23 14:41:58;;;;;;;6.63;2.60;;;;;;;;;;5112492;28;20032;-63
2022/06/23 14:45:02;;;;;;;3.78;2.97;;;;;;;;;;5112316;28;20123;-63
2022/06/23 14:47:50;;;;;;;3.55;2.63;;;;;;;;;;5009764;28;20042;-63
2022/06/23 14:50:30;;;;;;;3.60;2.70;;;;;;;;;;5009431;28;20453;-63
2022/06/23 14:53:10;;;;;;;3.17;2.88;;;;;;;;;;5083162;28;20090;-63
2022/06/23 14:55:39;;;;;;;2.67;2.42;;;;;;;;;;5112044;28;20574;-64
2022/06/23 14:58:19;;;;;;;3.40;2.85;;;;;;;;;;5112059;28;20082;-64
2022/06/23 15:00:45;;;;;;;;;;;;;;;;;;5112490;28;20044;-64
2022/06/23 15:03:21;;;;;;;4.43;2.78;;;;;;;;;;5112256;28;20059;-64
2022/06/23 15:05:56;;;;;;;3.78;2.78;;;;;;;;;;5112090;28;20051;-64
2022/06/23 15:08:28;;;;;;;3.33;2.83;;;;;;;;;;5112115;28;20096;-63
2022/06/23 15:10:57;;;;;;;2.90;2.45;;;;;;;;;;5112399;28;20089;-64
2022/06/23 15:13:26;;;;;;;3.58;2.65;;;;;;;;;;5111982;28;20044;-63
2022/06/23 15:15:54;;;;;;;5.57;2.60;;;;;;;;;;5112080;28;20047;-64
2022/06/23 15:18:28;;;;;;;3.72;2.65;;;;;;;;;;5112005;28;20393;-64